Main page
METAR-TAF:

METAR-TAF

Airports :

Platteville Municipal Airport

Platteville, Wisconsin, United States

latitude: 42-41-22N, longitude: 090-26-40W, elevation: 1023 ft

Current weather observation

The report was made 56 minutes ago, at 22:55 UTC
Wind 21 mph from the West/Northwest with gusts up to 29 mph
Temperature 48°F
Humidity 43%
Pressure 30.09 in. Hg
Visibility: 10 miles
Scattered clouds at a height of 6000 ft

METAR: KPVB 192255Z AUTO 29018G25KT 10SM SCT060 09/M03 A3009 RMK AO1 T00901035

Time: 18:51 (23:51 UTC)


TAF: missing

Weather observations and forecasts of more than 4000 airports (METAR and TAF reports).

The available stations are represented by yellow and red dots on the map.

Hover mouse over dot to see the name of the station.

Then click to see weather observations and forecasts.

To change the map : click on the green buttons with a black cross to zoom in, on the green button with a dash to zoom out, or on the green arrows for adjacent maps.


METAR-TAF: